sensor_id;sensor_type;location;lat;lon;timestamp;P1;durP1;ratioP1;P2;durP2;ratioP2
28545;SDS011;15749;49.606;8.738;2023-11-18T03:29:25;1.77;;;1.67;;
28545;SDS011;15749;49.606;8.738;2023-11-18T03:31:54;2.20;;;1.90;;
28545;SDS011;15749;49.606;8.738;2023-11-18T03:34:24;2.20;;;2.00;;
28545;SDS011;15749;49.606;8.738;2023-11-18T03:36:54;2.30;;;2.10;;
28545;SDS011;15749;49.606;8.738;2023-11-18T03:39:24;2.50;;;2.30;;
28545;SDS011;15749;49.606;8.738;2023-11-18T03:41:54;2.13;;;1.97;;
28545;SDS011;15749;49.606;8.738;2023-11-18T03:44:25;2.00;;;1.90;;
28545;SDS011;15749;49.606;8.738;2023-11-18T03:46:55;2.00;;;1.90;;
28545;SDS011;15749;49.606;8.738;2023-11-18T03:49:24;2.43;;;1.70;;
28545;SDS011;15749;49.606;8.738;2023-11-18T03:51:54;1.90;;;1.80;;
28545;SDS011;15749;49.606;8.738;2023-11-18T03:54:23;1.80;;;1.70;;
28545;SDS011;15749;49.606;8.738;2023-11-18T03:56:52;1.80;;;1.70;;
28545;SDS011;15749;49.606;8.738;2023-11-18T03:59:22;2.03;;;1.83;;
28545;SDS011;15749;49.606;8.738;2023-11-18T04:01:52;3.07;;;2.77;;
28545;SDS011;15749;49.606;8.738;2023-11-18T04:04:22;2.83;;;2.63;;
28545;SDS011;15749;49.606;8.738;2023-11-18T04:06:51;3.90;;;2.50;;
28545;SDS011;15749;49.606;8.738;2023-11-18T04:09:20;1.80;;;1.70;;
28545;SDS011;15749;49.606;8.738;2023-11-18T04:11:49;1.90;;;1.70;;
28545;SDS011;15749;49.606;8.738;2023-11-18T04:14:19;1.87;;;1.77;;
28545;SDS011;15749;49.606;8.738;2023-11-18T04:16:48;2.10;;;1.90;;
28545;SDS011;15749;49.606;8.738;2023-11-18T04:19:19;2.23;;;2.03;;
28545;SDS011;15749;49.606;8.738;2023-11-18T04:21:48;2.00;;;1.90;;
28545;SDS011;15749;49.606;8.738;2023-11-18T04:24:17;2.97;;;2.77;;
28545;SDS011;15749;49.606;8.738;2023-11-18T04:26:46;3.50;;;3.20;;
28545;SDS011;15749;49.606;8.738;2023-11-18T04:29:16;3.37;;;2.37;;
28545;SDS011;15749;49.606;8.738;2023-11-18T04:31:46;3.17;;;2.93;;
28545;SDS011;15749;49.606;8.738;2023-11-18T04:34:15;2.80;;;2.60;;
28545;SDS011;15749;49.606;8.738;2023-11-18T04:36:46;2.53;;;2.33;;
28545;SDS011;15749;49.606;8.738;2023-11-18T04:39:15;2.40;;;2.20;;
28545;SDS011;15749;49.606;8.738;2023-11-18T04:41:44;3.07;;;2.77;;
28545;SDS011;15749;49.606;8.738;2023-11-18T04:44:14;3.17;;;2.20;;
28545;SDS011;15749;49.606;8.738;2023-11-18T04:46:45;2.43;;;2.23;;
28545;SDS011;15749;49.606;8.738;2023-11-18T04:49:14;2.20;;;2.10;;
28545;SDS011;15749;49.606;8.738;2023-11-18T04:51:44;1.90;;;1.80;;
28545;SDS011;15749;49.606;8.738;2023-11-18T04:54:14;2.00;;;1.90;;
28545;SDS011;15749;49.606;8.738;2023-11-18T04:56:43;2.03;;;1.93;;
28545;SDS011;15749;49.606;8.738;2023-11-18T04:59:13;2.03;;;1.93;;
28545;SDS011;15749;49.606;8.738;2023-11-18T05:01:42;2.63;;;2.10;;
28545;SDS011;15749;49.606;8.738;2023-11-18T05:04:11;2.27;;;2.17;;
28545;SDS011;15749;49.606;8.738;2023-11-18T05:06:41;1.87;;;1.77;;
28545;SDS011;15749;49.606;8.738;2023-11-18T05:09:11;2.30;;;2.10;;
28545;SDS011;15749;49.606;8.738;2023-11-18T05:11:40;2.50;;;2.30;;
28545;SDS011;15749;49.606;8.738;2023-11-18T05:14:09;2.90;;;2.10;;
28545;SDS011;15749;49.606;8.738;2023-11-18T05:16:39;2.40;;;2.20;;
28545;SDS011;15749;49.606;8.738;2023-11-18T05:19:09;2.40;;;2.23;;
28545;SDS011;15749;49.606;8.738;2023-11-18T05:21:39;2.77;;;2.47;;
28545;SDS011;15749;49.606;8.738;2023-11-18T05:24:08;1.83;;;1.73;;
28545;SDS011;15749;49.606;8.738;2023-11-18T05:26:39;1.80;;;1.70;;
28545;SDS011;15749;49.606;8.738;2023-11-18T05:29:08;1.77;;;1.67;;
28545;SDS011;15749;49.606;8.738;2023-11-18T05:31:37;1.90;;;1.80;;
28545;SDS011;15749;49.606;8.738;2023-11-18T05:34:06;1.87;;;1.77;;
28545;SDS011;15749;49.606;8.738;2023-11-18T05:36:35;1.97;;;1.70;;
28545;SDS011;15749;49.606;8.738;2023-11-18T05:39:05;1.40;;;1.30;;
28545;SDS011;15749;49.606;8.738;2023-11-18T05:41:34;1.30;;;1.20;;
28545;SDS011;15749;49.606;8.738;2023-11-18T05:44:08;1.53;;;1.43;;
28545;SDS011;15749;49.606;8.738;2023-11-18T05:46:44;1.80;;;1.70;;
28545;SDS011;15749;49.606;8.738;2023-11-18T05:49:14;1.77;;;1.67;;
28545;SDS011;15749;49.606;8.738;2023-11-18T05:51:43;1.53;;;1.43;;
28545;SDS011;15749;49.606;8.738;2023-11-18T05:54:13;2.37;;;1.80;;
28545;SDS011;15749;49.606;8.738;2023-11-18T05:56:42;1.63;;;1.53;;
28545;SDS011;15749;49.606;8.738;2023-11-18T05:59:13;2.10;;;1.60;;
28545;SDS011;15749;49.606;8.738;2023-11-18T06:01:42;1.53;;;1.43;;
28545;SDS011;15749;49.606;8.738;2023-11-18T06:04:11;1.70;;;1.60;;
28545;SDS011;15749;49.606;8.738;2023-11-18T06:06:41;1.67;;;1.57;;
28545;SDS011;15749;49.606;8.738;2023-11-18T06:09:10;1.50;;;1.40;;
28545;SDS011;15749;49.606;8.738;2023-11-18T06:11:47;1.70;;;1.60;;
28545;SDS011;15749;49.606;8.738;2023-11-18T06:14:19;2.10;;;2.00;;
28545;SDS011;15749;49.606;8.738;2023-11-18T06:16:49;1.67;;;1.57;;
28545;SDS011;15749;49.606;8.738;2023-11-18T06:19:19;1.93;;;1.50;;
28545;SDS011;15749;49.606;8.738;2023-11-18T06:21:48;2.00;;;1.90;;
28545;SDS011;15749;49.606;8.738;2023-11-18T06:24:17;1.63;;;1.53;;
28545;SDS011;15749;49.606;8.738;2023-11-18T06:26:48;3.73;;;1.70;;
28545;SDS011;15749;49.606;8.738;2023-11-18T06:29:17;1.97;;;1.87;;
28545;SDS011;15749;49.606;8.738;2023-11-18T06:31:48;1.77;;;1.67;;
28545;SDS011;15749;49.606;8.738;2023-11-18T06:34:17;2.00;;;1.90;;
28545;SDS011;15749;49.606;8.738;2023-11-18T06:36:48;2.13;;;2.03;;
28545;SDS011;15749;49.606;8.738;2023-11-18T06:39:18;2.37;;;2.17;;
28545;SDS011;15749;49.606;8.738;2023-11-18T06:41:48;2.13;;;2.03;;
28545;SDS011;15749;49.606;8.738;2023-11-18T06:44:21;3.37;;;2.80;;
28545;SDS011;15749;49.606;8.738;2023-11-18T06:46:51;2.47;;;2.27;;
28545;SDS011;15749;49.606;8.738;2023-11-18T06:49:20;4.30;;;2.33;;
28545;SDS011;15749;49.606;8.738;2023-11-18T06:51:52;2.40;;;2.20;;
28545;SDS011;15749;49.606;8.738;2023-11-18T06:54:21;2.07;;;1.97;;
28545;SDS011;15749;49.606;8.738;2023-11-18T06:56:51;2.53;;;2.33;;
28545;SDS011;15749;49.606;8.738;2023-11-18T06:59:22;2.20;;;2.00;;
28545;SDS011;15749;49.606;8.738;2023-11-18T07:01:51;2.23;;;2.10;;
28545;SDS011;15749;49.606;8.738;2023-11-18T07:04:20;3.07;;;2.53;;
28545;SDS011;15749;49.606;8.738;2023-11-18T07:06:50;2.43;;;2.23;;
28545;SDS011;15749;49.606;8.738;2023-11-18T07:09:19;1.90;;;1.80;;
28545;SDS011;15749;49.606;8.738;2023-11-18T07:11:49;2.43;;;2.23;;
28545;SDS011;15749;49.606;8.738;2023-11-18T07:14:18;2.23;;;2.03;;
28545;SDS011;15749;49.606;8.738;2023-11-18T07:16:49;2.53;;;2.33;;
28545;SDS011;15749;49.606;8.738;2023-11-18T07:19:18;2.07;;;1.87;;
28545;SDS011;15749;49.606;8.738;2023-11-18T07:21:49;2.30;;;2.10;;
28545;SDS011;15749;49.606;8.738;2023-11-18T07:24:18;2.73;;;2.53;;
28545;SDS011;15749;49.606;8.738;2023-11-18T07:26:48;2.77;;;2.40;;
28545;SDS011;15749;49.606;8.738;2023-11-18T07:29:18;1.60;;;1.50;;
28545;SDS011;15749;49.606;8.738;2023-11-18T07:31:49;1.97;;;1.87;;
28545;SDS011;15749;49.606;8.738;2023-11-18T07:34:18;2.07;;;1.97;;
28545;SDS011;15749;49.606;8.738;2023-11-18T07:36:48;2.00;;;1.90;;
28545;SDS011;15749;49.606;8.738;2023-11-18T07:39:19;1.60;;;1.50;;
28545;SDS011;15749;49.606;8.738;2023-11-18T07:41:55;2.77;;;1.90;;
28545;SDS011;15749;49.606;8.738;2023-11-18T07:44:28;3.13;;;2.70;;
28545;SDS011;15749;49.606;8.738;2023-11-18T07:47:01;2.37;;;2.17;;
28545;SDS011;15749;49.606;8.738;2023-11-18T07:49:32;2.40;;;2.23;;
28545;SDS011;15749;49.606;8.738;2023-11-18T07:52:03;2.13;;;1.97;;
28545;SDS011;15749;49.606;8.738;2023-11-18T07:54:33;2.27;;;2.10;;
28545;SDS011;15749;49.606;8.738;2023-11-18T07:57:02;2.47;;;2.27;;
28545;SDS011;15749;49.606;8.738;2023-11-18T07:59:38;2.10;;;1.97;;
28545;SDS011;15749;49.606;8.738;2023-11-18T08:02:11;2.60;;;2.40;;
28545;SDS011;15749;49.606;8.738;2023-11-18T08:04:42;2.50;;;2.30;;
28545;SDS011;15749;49.606;8.738;2023-11-18T08:07:10;2.10;;;2.00;;
28545;SDS011;15749;49.606;8.738;2023-11-18T08:09:39;3.17;;;2.97;;
28545;SDS011;15749;49.606;8.738;2023-11-18T08:12:10;2.20;;;2.10;;
28545;SDS011;15749;49.606;8.738;2023-11-18T08:14:39;2.90;;;2.70;;
28545;SDS011;15749;49.606;8.738;2023-11-18T08:17:12;3.07;;;2.83;;
28545;SDS011;15749;49.606;8.738;2023-11-18T08:19:41;2.70;;;2.50;;
28545;SDS011;15749;49.606;8.738;2023-11-18T08:22:11;2.60;;;2.40;;
28545;SDS011;15749;49.606;8.738;2023-11-18T08:24:41;2.83;;;2.63;;
28545;SDS011;15749;49.606;8.738;2023-11-18T08:27:11;4.03;;;3.67;;
28545;SDS011;15749;49.606;8.738;2023-11-18T08:29:40;3.43;;;3.13;;
28545;SDS011;15749;49.606;8.738;2023-11-18T08:32:09;2.50;;;2.30;;
28545;SDS011;15749;49.606;8.738;2023-11-18T08:34:40;2.13;;;2.00;;
28545;SDS011;15749;49.606;8.738;2023-11-18T08:37:09;3.03;;;2.83;;
28545;SDS011;15749;49.606;8.738;2023-11-18T08:39:38;2.43;;;2.23;;
28545;SDS011;15749;49.606;8.738;2023-11-18T08:42:08;2.77;;;2.57;;
28545;SDS011;15749;49.606;8.738;2023-11-18T08:44:37;2.50;;;2.30;;
28545;SDS011;15749;49.606;8.738;2023-11-18T08:47:07;2.40;;;2.20;;
28545;SDS011;15749;49.606;8.738;2023-11-18T08:49:38;1.90;;;1.80;;
28545;SDS011;15749;49.606;8.738;2023-11-18T08:52:08;2.63;;;2.43;;
28545;SDS011;15749;49.606;8.738;2023-11-18T08:54:40;2.70;;;2.50;;
28545;SDS011;15749;49.606;8.738;2023-11-18T08:57:29;2.40;;;2.20;;
28545;SDS011;15749;49.606;8.738;2023-11-18T09:00:15;2.50;;;2.30;;
28545;SDS011;15749;49.606;8.738;2023-11-18T09:03:06;2.10;;;2.00;;
28545;SDS011;15749;49.606;8.738;2023-11-18T09:05:37;3.40;;;3.10;;
28545;SDS011;15749;49.606;8.738;2023-11-18T09:08:10;2.60;;;2.40;;
28545;SDS011;15749;49.606;8.738;2023-11-18T09:10:39;4.30;;;3.90;;
28545;SDS011;15749;49.606;8.738;2023-11-18T09:13:08;3.70;;;3.30;;
28545;SDS011;15749;49.606;8.738;2023-11-18T09:15:39;3.50;;;3.20;;
28545;SDS011;15749;49.606;8.738;2023-11-18T09:18:09;2.60;;;2.40;;
28545;SDS011;15749;49.606;8.738;2023-11-18T09:20:41;2.53;;;2.33;;
28545;SDS011;15749;49.606;8.738;2023-11-18T09:23:10;3.47;;;2.60;;
28545;SDS011;15749;49.606;8.738;2023-11-18T09:25:40;1.87;;;1.77;;
28545;SDS011;15749;49.606;8.738;2023-11-18T09:28:14;2.20;;;2.10;;
28545;SDS011;15749;49.606;8.738;2023-11-18T09:30:44;2.90;;;2.70;;
28545;SDS011;15749;49.606;8.738;2023-11-18T09:33:17;2.40;;;2.27;;
28545;SDS011;15749;49.606;8.738;2023-11-18T09:35:54;2.50;;;2.30;;
28545;SDS011;15749;49.606;8.738;2023-11-18T09:38:26;2.30;;;2.10;;
28545;SDS011;15749;49.606;8.738;2023-11-18T09:40:59;2.37;;;2.20;;
28545;SDS011;15749;49.606;8.738;2023-11-18T09:43:30;2.47;;;2.27;;
28545;SDS011;15749;49.606;8.738;2023-11-18T09:46:04;2.17;;;1.97;;
28545;SDS011;15749;49.606;8.738;2023-11-18T09:48:41;2.60;;;2.40;;
28545;SDS011;15749;49.606;8.738;2023-11-18T09:51:17;1.90;;;1.80;;
28545;SDS011;15749;49.606;8.738;2023-11-18T09:53:52;2.30;;;1.87;;
28545;SDS011;15749;49.606;8.738;2023-11-18T09:56:23;1.60;;;1.50;;
28545;SDS011;15749;49.606;8.738;2023-11-18T09:59:09;1.57;;;1.40;;
28545;SDS011;15749;49.606;8.738;2023-11-18T10:01:44;1.40;;;1.30;;
28545;SDS011;15749;49.606;8.738;2023-11-18T10:04:16;1.50;;;1.40;;
28545;SDS011;15749;49.606;8.738;2023-11-18T10:06:47;1.50;;;1.40;;
28545;SDS011;15749;49.606;8.738;2023-11-18T10:09:21;1.60;;;1.50;;
28545;SDS011;15749;49.606;8.738;2023-11-18T10:11:55;1.50;;;1.40;;
28545;SDS011;15749;49.606;8.738;2023-11-18T10:14:33;1.30;;;1.20;;
28545;SDS011;15749;49.606;8.738;2023-11-18T10:17:05;1.23;;;1.13;;
28545;SDS011;15749;49.606;8.738;2023-11-18T10:19:51;1.03;;;1.00;;
28545;SDS011;15749;49.606;8.738;2023-11-18T10:22:22;1.70;;;1.30;;
28545;SDS011;15749;49.606;8.738;2023-11-18T10:24:55;3.00;;;1.90;;
28545;SDS011;15749;49.606;8.738;2023-11-18T10:27:25;1.57;;;1.47;;
28545;SDS011;15749;49.606;8.738;2023-11-18T10:29:55;1.60;;;1.50;;
28545;SDS011;15749;49.606;8.738;2023-11-18T10:32:25;1.37;;;1.27;;
28545;SDS011;15749;49.606;8.738;2023-11-18T10:34:56;1.30;;;1.20;;
28545;SDS011;15749;49.606;8.738;2023-11-18T10:37:27;1.17;;;1.10;;
28545;SDS011;15749;49.606;8.738;2023-11-18T10:40:03;1.30;;;1.20;;
28545;SDS011;15749;49.606;8.738;2023-11-18T10:42:33;1.20;;;1.00;;
28545;SDS011;15749;49.606;8.738;2023-11-18T10:45:02;1.03;;;0.97;;
28545;SDS011;15749;49.606;8.738;2023-11-18T10:47:32;1.40;;;1.30;;
28545;SDS011;15749;49.606;8.738;2023-11-18T10:50:03;1.50;;;1.07;;
28545;SDS011;15749;49.606;8.738;2023-11-18T10:52:38;1.40;;;1.30;;
28545;SDS011;15749;49.606;8.738;2023-11-18T10:55:09;2.53;;;1.80;;
28545;SDS011;15749;49.606;8.738;2023-11-18T10:57:40;1.83;;;1.73;;
28545;SDS011;15749;49.606;8.738;2023-11-18T11:00:11;1.30;;;1.20;;
28545;SDS011;15749;49.606;8.738;2023-11-18T11:02:46;1.10;;;1.07;;
28545;SDS011;15749;49.606;8.738;2023-11-18T11:05:27;1.00;;;0.90;;
28545;SDS011;15749;49.606;8.738;2023-11-18T11:08:03;1.00;;;0.90;;
28545;SDS011;15749;49.606;8.738;2023-11-18T11:10:33;0.97;;;0.97;;
28545;SDS011;15749;49.606;8.738;2023-11-18T11:13:03;0.90;;;0.90;;
28545;SDS011;15749;49.606;8.738;2023-11-18T11:15:36;1.50;;;1.40;;
28545;SDS011;15749;49.606;8.738;2023-11-18T11:18:23;1.20;;;0.80;;
28545;SDS011;15749;49.606;8.738;2023-11-18T11:21:04;1.03;;;0.93;;
28545;SDS011;15749;49.606;8.738;2023-11-18T11:23:41;0.93;;;0.80;;
28545;SDS011;15749;49.606;8.738;2023-11-18T11:26:26;1.00;;;0.80;;
28545;SDS011;15749;49.606;8.738;2023-11-18T11:29:12;0.77;;;0.50;;
28545;SDS011;15749;49.606;8.738;2023-11-18T11:31:53;0.67;;;0.67;;
28545;SDS011;15749;49.606;8.738;2023-11-18T11:34:30;0.50;;;0.40;;
28545;SDS011;15749;49.606;8.738;2023-11-18T11:37:01;1.33;;;0.80;;
28545;SDS011;15749;49.606;8.738;2023-11-18T11:39:36;0.80;;;0.80;;
28545;SDS011;15749;49.606;8.738;2023-11-18T11:42:13;0.50;;;0.50;;
28545;SDS011;15749;49.606;8.738;2023-11-18T11:44:48;0.60;;;0.60;;
28545;SDS011;15749;49.606;8.738;2023-11-18T11:47:20;0.73;;;0.73;;
28545;SDS011;15749;49.606;8.738;2023-11-18T11:49:52;1.40;;;1.20;;
28545;SDS011;15749;49.606;8.738;2023-11-18T11:52:37;1.03;;;0.80;;
28545;SDS011;15749;49.606;8.738;2023-11-18T11:55:19;0.83;;;0.83;;
28545;SDS011;15749;49.606;8.738;2023-11-18T11:57:57;0.50;;;0.50;;
28545;SDS011;15749;49.606;8.738;2023-11-18T12:00:27;0.80;;;0.80;;
28545;SDS011;15749;49.606;8.738;2023-11-18T12:03:02;0.63;;;0.60;;
28545;SDS011;15749;49.606;8.738;2023-11-18T12:05:32;0.70;;;0.70;;
28545;SDS011;15749;49.606;8.738;2023-11-18T12:08:02;1.27;;;0.80;;
28545;SDS011;15749;49.606;8.738;2023-11-18T12:10:43;0.73;;;0.73;;
28545;SDS011;15749;49.606;8.738;2023-11-18T12:13:22;0.77;;;0.70;;
28545;SDS011;15749;49.606;8.738;2023-11-18T12:15:54;0.80;;;0.80;;
28545;SDS011;15749;49.606;8.738;2023-11-18T12:18:25;0.60;;;0.60;;
28545;SDS011;15749;49.606;8.738;2023-11-18T12:20:54;0.60;;;0.57;;
28545;SDS011;15749;49.606;8.738;2023-11-18T12:23:26;2.43;;;0.80;;
28545;SDS011;15749;49.606;8.738;2023-11-18T12:25:59;0.60;;;0.60;;
28545;SDS011;15749;49.606;8.738;2023-11-18T12:28:31;0.50;;;0.50;;
28545;SDS011;15749;49.606;8.738;2023-11-18T12:31:05;0.70;;;0.57;;
28545;SDS011;15749;49.606;8.738;2023-11-18T12:36:44;0.80;;;0.73;;
28545;SDS011;15749;49.606;8.738;2023-11-18T12:39:42;0.53;;;0.50;;
28545;SDS011;15749;49.606;8.738;2023-11-18T12:45:44;0.70;;;0.50;;
28545;SDS011;15749;49.606;8.738;2023-11-18T12:48:28;0.50;;;0.50;;
28545;SDS011;15749;49.606;8.738;2023-11-18T12:50:59;0.80;;;0.50;;
28545;SDS011;15749;49.606;8.738;2023-11-18T12:53:29;0.40;;;0.40;;
28545;SDS011;15749;49.606;8.738;2023-11-18T12:55:58;0.40;;;0.40;;
28545;SDS011;15749;49.606;8.738;2023-11-18T12:58:31;0.40;;;0.40;;
28545;SDS011;15749;49.606;8.738;2023-11-18T13:01:01;0.80;;;0.50;;
28545;SDS011;15749;49.606;8.738;2023-11-18T13:03:30;0.50;;;0.50;;
28545;SDS011;15749;49.606;8.738;2023-11-18T13:06:01;1.47;;;0.50;;
28545;SDS011;15749;49.606;8.738;2023-11-18T13:08:33;0.47;;;0.47;;
28545;SDS011;15749;49.606;8.738;2023-11-18T13:11:02;0.70;;;0.40;;
28545;SDS011;15749;49.606;8.738;2023-11-18T13:13:34;1.00;;;0.50;;
28545;SDS011;15749;49.606;8.738;2023-11-18T13:16:04;0.50;;;0.50;;
28545;SDS011;15749;49.606;8.738;2023-11-18T13:18:45;0.50;;;0.50;;
28545;SDS011;15749;49.606;8.738;2023-11-18T13:21:17;1.20;;;0.60;;
28545;SDS011;15749;49.606;8.738;2023-11-18T13:23:48;0.50;;;0.50;;
28545;SDS011;15749;49.606;8.738;2023-11-18T13:26:20;0.40;;;0.40;;
28545;SDS011;15749;49.606;8.738;2023-11-18T13:28:51;1.00;;;0.83;;
28545;SDS011;15749;49.606;8.738;2023-11-18T13:31:21;0.60;;;0.50;;
28545;SDS011;15749;49.606;8.738;2023-11-18T13:33:51;0.70;;;0.70;;
28545;SDS011;15749;49.606;8.738;2023-11-18T13:36:20;0.80;;;0.70;;
28545;SDS011;15749;49.606;8.738;2023-11-18T13:38:52;0.83;;;0.70;;
28545;SDS011;15749;49.606;8.738;2023-11-18T13:41:30;0.87;;;0.60;;
28545;SDS011;15749;49.606;8.738;2023-11-18T13:44:01;0.73;;;0.73;;
28545;SDS011;15749;49.606;8.738;2023-11-18T13:46:30;0.60;;;0.60;;
28545;SDS011;15749;49.606;8.738;2023-11-18T13:49:03;0.80;;;0.70;;
28545;SDS011;15749;49.606;8.738;2023-11-18T13:51:33;0.60;;;0.53;;
28545;SDS011;15749;49.606;8.738;2023-11-18T13:54:03;0.70;;;0.60;;
28545;SDS011;15749;49.606;8.738;2023-11-18T13:56:34;0.57;;;0.57;;
28545;SDS011;15749;49.606;8.738;2023-11-18T13:59:04;0.50;;;0.50;;
28545;SDS011;15749;49.606;8.738;2023-11-18T14:01:34;0.53;;;0.50;;
28545;SDS011;15749;49.606;8.738;2023-11-18T14:04:04;1.07;;;0.60;;
28545;SDS011;15749;49.606;8.738;2023-11-18T14:06:35;0.57;;;0.57;;
28545;SDS011;15749;49.606;8.738;2023-11-18T14:09:06;0.60;;;0.60;;
28545;SDS011;15749;49.606;8.738;2023-11-18T14:11:38;0.80;;;0.80;;
28545;SDS011;15749;49.606;8.738;2023-11-18T14:14:12;1.00;;;0.60;;
28545;SDS011;15749;49.606;8.738;2023-11-18T14:16:41;0.93;;;0.60;;
28545;SDS011;15749;49.606;8.738;2023-11-18T14:19:11;0.90;;;0.77;;
28545;SDS011;15749;49.606;8.738;2023-11-18T14:21:41;0.57;;;0.57;;
28545;SDS011;15749;49.606;8.738;2023-11-18T14:24:11;1.23;;;0.83;;
28545;SDS011;15749;49.606;8.738;2023-11-18T14:26:40;1.23;;;0.67;;
28545;SDS011;15749;49.606;8.738;2023-11-18T14:29:09;0.57;;;0.57;;
28545;SDS011;15749;49.606;8.738;2023-11-18T14:49:52;3.57;;;1.13;;
28545;SDS011;15749;49.606;8.738;2023-11-18T14:52:21;0.60;;;0.60;;
28545;SDS011;15749;49.606;8.738;2023-11-18T14:54:51;0.80;;;0.80;;
28545;SDS011;15749;49.606;8.738;2023-11-18T14:57:20;1.20;;;1.10;;
28545;SDS011;15749;49.606;8.738;2023-11-18T14:59:49;0.90;;;0.80;;
28545;SDS011;15749;49.606;8.738;2023-11-18T15:02:19;1.50;;;1.40;;
28545;SDS011;15749;49.606;8.738;2023-11-18T15:04:51;0.90;;;0.90;;
28545;SDS011;15749;49.606;8.738;2023-11-18T15:07:21;1.20;;;1.10;;
28545;SDS011;15749;49.606;8.738;2023-11-18T15:09:50;1.10;;;1.00;;
28545;SDS011;15749;49.606;8.738;2023-11-18T15:12:19;1.57;;;1.10;;
28545;SDS011;15749;49.606;8.738;2023-11-18T15:14:49;1.20;;;1.10;;
28545;SDS011;15749;49.606;8.738;2023-11-18T15:17:18;1.00;;;0.90;;
28545;SDS011;15749;49.606;8.738;2023-11-18T15:19:49;1.20;;;1.10;;
28545;SDS011;15749;49.606;8.738;2023-11-18T15:22:21;1.17;;;1.03;;
28545;SDS011;15749;49.606;8.738;2023-11-18T15:24:50;1.47;;;1.10;;
28545;SDS011;15749;49.606;8.738;2023-11-18T15:27:23;1.30;;;1.20;;
28545;SDS011;15749;49.606;8.738;2023-11-18T15:29:53;1.70;;;1.20;;
28545;SDS011;15749;49.606;8.738;2023-11-18T15:32:36;1.20;;;1.10;;
28545;SDS011;15749;49.606;8.738;2023-11-18T15:35:11;0.87;;;0.83;;
28545;SDS011;15749;49.606;8.738;2023-11-18T15:37:47;1.70;;;1.60;;
28545;SDS011;15749;49.606;8.738;2023-11-18T15:40:18;1.50;;;1.40;;
28545;SDS011;15749;49.606;8.738;2023-11-18T15:42:53;1.43;;;1.20;;
28545;SDS011;15749;49.606;8.738;2023-11-18T15:45:27;1.37;;;1.23;;
28545;SDS011;15749;49.606;8.738;2023-11-18T15:48:00;1.03;;;0.93;;
28545;SDS011;15749;49.606;8.738;2023-11-18T15:50:34;1.27;;;1.07;;
28545;SDS011;15749;49.606;8.738;2023-11-18T15:53:10;1.00;;;0.90;;
28545;SDS011;15749;49.606;8.738;2023-11-18T15:55:53;1.50;;;1.30;;
28545;SDS011;15749;49.606;8.738;2023-11-18T15:58:42;1.10;;;1.00;;
28545;SDS011;15749;49.606;8.738;2023-11-18T16:01:13;2.63;;;1.50;;
28545;SDS011;15749;49.606;8.738;2023-11-18T16:03:43;4.63;;;1.40;;
28545;SDS011;15749;49.606;8.738;2023-11-18T16:06:20;1.53;;;1.40;;
28545;SDS011;15749;49.606;8.738;2023-11-18T16:08:51;3.00;;;1.40;;
28545;SDS011;15749;49.606;8.738;2023-11-18T16:11:21;1.23;;;1.13;;
28545;SDS011;15749;49.606;8.738;2023-11-18T16:13:51;3.83;;;1.40;;
28545;SDS011;15749;49.606;8.738;2023-11-18T16:16:23;1.17;;;1.10;;
28545;SDS011;15749;49.606;8.738;2023-11-18T16:18:58;3.67;;;3.00;;
28545;SDS011;15749;49.606;8.738;2023-11-18T16:21:29;3.70;;;3.10;;
28545;SDS011;15749;49.606;8.738;2023-11-18T16:23:59;2.50;;;2.30;;
28545;SDS011;15749;49.606;8.738;2023-11-18T16:26:29;2.10;;;1.90;;
28545;SDS011;15749;49.606;8.738;2023-11-18T16:28:59;1.50;;;1.40;;
28545;SDS011;15749;49.606;8.738;2023-11-18T16:31:30;1.20;;;1.10;;
28545;SDS011;15749;49.606;8.738;2023-11-18T16:34:04;1.50;;;1.40;;
28545;SDS011;15749;49.606;8.738;2023-11-18T16:36:40;1.53;;;1.10;;
28545;SDS011;15749;49.606;8.738;2023-11-18T16:39:17;1.20;;;1.10;;
28545;SDS011;15749;49.606;8.738;2023-11-18T16:41:48;1.10;;;0.80;;
28545;SDS011;15749;49.606;8.738;2023-11-18T16:44:20;0.80;;;0.80;;
28545;SDS011;15749;49.606;8.738;2023-11-18T16:46:50;0.87;;;0.87;;
28545;SDS011;15749;49.606;8.738;2023-11-18T16:49:20;1.07;;;1.00;;
28545;SDS011;15749;49.606;8.738;2023-11-18T16:51:52;1.10;;;1.00;;
28545;SDS011;15749;49.606;8.738;2023-11-18T16:54:26;1.10;;;1.00;;
28545;SDS011;15749;49.606;8.738;2023-11-18T16:57:07;1.07;;;0.97;;
28545;SDS011;15749;49.606;8.738;2023-11-18T16:59:36;0.93;;;0.70;;
28545;SDS011;15749;49.606;8.738;2023-11-18T17:02:07;1.40;;;0.80;;
28545;SDS011;15749;49.606;8.738;2023-11-18T17:04:39;1.30;;;1.20;;
28545;SDS011;15749;49.606;8.738;2023-11-18T17:07:13;1.83;;;1.67;;
28545;SDS011;15749;49.606;8.738;2023-11-18T17:09:44;2.33;;;1.90;;
28545;SDS011;15749;49.606;8.738;2023-11-18T17:12:14;1.70;;;1.60;;
28545;SDS011;15749;49.606;8.738;2023-11-18T17:14:48;5.00;;;2.00;;
28545;SDS011;15749;49.606;8.738;2023-11-18T17:17:16;3.07;;;1.83;;
28545;SDS011;15749;49.606;8.738;2023-11-18T17:19:45;2.53;;;1.63;;
28545;SDS011;15749;49.606;8.738;2023-11-18T17:22:16;1.83;;;1.57;;
28545;SDS011;15749;49.606;8.738;2023-11-18T17:24:45;1.40;;;1.30;;
28545;SDS011;15749;49.606;8.738;2023-11-18T17:27:19;1.47;;;1.30;;
28545;SDS011;15749;49.606;8.738;2023-11-18T17:29:51;1.13;;;1.00;;
28545;SDS011;15749;49.606;8.738;2023-11-18T17:32:22;1.10;;;0.80;;
28545;SDS011;15749;49.606;8.738;2023-11-18T17:34:53;1.30;;;1.20;;
28545;SDS011;15749;49.606;8.738;2023-11-18T17:37:24;1.23;;;1.13;;
28545;SDS011;15749;49.606;8.738;2023-11-18T17:39:53;1.27;;;1.17;;
28545;SDS011;15749;49.606;8.738;2023-11-18T17:42:22;1.20;;;1.10;;
28545;SDS011;15749;49.606;8.738;2023-11-18T17:44:52;1.40;;;1.30;;
28545;SDS011;15749;49.606;8.738;2023-11-18T17:47:21;1.40;;;1.30;;
28545;SDS011;15749;49.606;8.738;2023-11-18T17:49:53;1.73;;;1.63;;
28545;SDS011;15749;49.606;8.738;2023-11-18T17:52:24;2.40;;;2.20;;
28545;SDS011;15749;49.606;8.738;2023-11-18T17:54:53;1.53;;;1.43;;
28545;SDS011;15749;49.606;8.738;2023-11-18T17:57:22;1.60;;;1.50;;
28545;SDS011;15749;49.606;8.738;2023-11-18T17:59:51;5.33;;;1.40;;
28545;SDS011;15749;49.606;8.738;2023-11-18T18:02:21;1.47;;;1.37;;
28545;SDS011;15749;49.606;8.738;2023-11-18T18:04:51;1.30;;;1.20;;
28545;SDS011;15749;49.606;8.738;2023-11-18T18:07:20;1.73;;;1.43;;
28545;SDS011;15749;49.606;8.738;2023-11-18T18:09:50;2.47;;;1.07;;
28545;SDS011;15749;49.606;8.738;2023-11-18T18:12:20;1.17;;;1.07;;
28545;SDS011;15749;49.606;8.738;2023-11-18T18:14:49;1.20;;;1.10;;
28545;SDS011;15749;49.606;8.738;2023-11-18T18:17:19;1.10;;;1.00;;
28545;SDS011;15749;49.606;8.738;2023-11-18T18:19:48;0.70;;;0.70;;
28545;SDS011;15749;49.606;8.738;2023-11-18T18:22:17;0.80;;;0.80;;
28545;SDS011;15749;49.606;8.738;2023-11-18T18:24:46;1.37;;;1.00;;
28545;SDS011;15749;49.606;8.738;2023-11-18T18:27:17;1.00;;;0.80;;
28545;SDS011;15749;49.606;8.738;2023-11-18T18:29:47;0.90;;;0.90;;
28545;SDS011;15749;49.606;8.738;2023-11-18T18:32:17;0.70;;;0.70;;
28545;SDS011;15749;49.606;8.738;2023-11-18T18:34:46;0.70;;;0.70;;
28545;SDS011;15749;49.606;8.738;2023-11-18T18:37:15;0.80;;;0.67;;
28545;SDS011;15749;49.606;8.738;2023-11-18T18:39:47;2.83;;;0.70;;
28545;SDS011;15749;49.606;8.738;2023-11-18T18:42:19;1.63;;;0.80;;
28545;SDS011;15749;49.606;8.738;2023-11-18T18:44:49;1.00;;;0.80;;
28545;SDS011;15749;49.606;8.738;2023-11-18T18:47:21;4.43;;;2.93;;
28545;SDS011;15749;49.606;8.738;2023-11-18T18:49:56;1.70;;;1.50;;
28545;SDS011;15749;49.606;8.738;2023-11-18T18:52:26;1.50;;;1.10;;
28545;SDS011;15749;49.606;8.738;2023-11-18T18:54:55;1.13;;;1.00;;
28545;SDS011;15749;49.606;8.738;2023-11-18T18:57:26;1.43;;;1.00;;
28545;SDS011;15749;49.606;8.738;2023-11-18T18:59:58;0.67;;;0.50;;
28545;SDS011;15749;49.606;8.738;2023-11-18T19:02:27;0.60;;;0.60;;
28545;SDS011;15749;49.606;8.738;2023-11-18T19:04:58;0.73;;;0.70;;
28545;SDS011;15749;49.606;8.738;2023-11-18T19:07:30;1.03;;;0.60;;